Terminal Aerodrome Forecast
Issued by NWS

Home | Current Version | Previous Version | Text Only | Print | Product List | Glossary On
Versions: 1 2 3 4 5 6 7 8 9 10 11 12 13 14 15 16 17 18 19 20 21 22 23 24 25 26 27 28
000
FTUS45 KREV 302320
TAFTRK
TAF
KTRK 302320Z 3100/3124 02007KT P6SM FEW070 SCT180
     FM310300 VRB04KT P6SM FEW180
     FM312100 04005KT P6SM FEW180=

USA.gov is the U.S. government's official web portal to all federal, state and local government web resources and services.